Aeroporto :
LOGIN :

Iscrizione | Disclaimer

   EN    FR    IT 

 










Sommario :    VFR   VFR Marginale   IFR   IFR Intensivo   IFR Molto Intensivo
Visibilità : 
Base nubi : 
>= 8 km
>= 3000ft
5 / 8 km
1000 / 3000 ft
1500m / 5 km
500 / 1000 ft
800 / 1500m
200 / 500 ft
< 800m
< 200 ft
Simboli :   Temporali  Nebbia  Neve Forte  Precipitazioni Forti  Vento > 20 kt
SIGMETs :   Varie  Temporali  Ghiacco  Turbolenza  Onda orograficha  Ceneri Vulcaniche






- Altitudine del aeroporto : 7 ft
- Codice IATA : ESH


EGKA - Shoreham

ULTIMO METAR :
  • 151720Z 36014KT 8000 -RA FEW010 BKN016 07/06 Q1000

METARs OBSOLETI :
  • 151650Z 36013KT 9000 -RA SCT014 BKN025 07/05 Q1000
  • 151620Z 36013KT 6000 RA FEW009 BKN025 07/05 Q1000
  • 151550Z 35013KT 8000 -RA FEW007 BKN021 07/06 Q1000
  • 151520Z 35009KT 6000 -RA FEW007 BKN023 07/06 Q1000
  • 151450Z 01007KT 9999 -RA FEW007 BKN023 08/05 Q1000

TAF TAF EGKA
Valido dal 15 a 15 ore il 15 a 19 ore UTC


151359Z 1515/1519 02010KT 9999 SCT025
TEMPO 1515/1519 02015G25KT
TEMPO 1515/1519 6000 RA SHRA BKN014
PROB30
TEMPO 1516/1519 4000 +SHRA BKN009
ATIS : +44 1273 467 372



MetMap, La meteo Aeronautica in un colpo d'occhio ! - Copyright ORBIFLY Dicembre 2007 - Disclaimer

ORBIFLY MET'MAP TEAM :

Programmazione e sviluppo : Alexandra Zaïnal
Concezione e sviluppo : Baudouin d'Aumeries
Co-Programmazione e sviluppo : Marc-Olivier Méhu
Supporto tecnico e logistico : Manuel Goepfert
Aiuto per la traduzione : Arnaldo La Scala

Contatto : metmap@orbifly.com




FONTI E CREDITI :

   NOAA